Time;durP1;ratioP1;P1;durP2;ratioP2;P2;SDS_P1;SDS_P2;PMS_P1;PMS_P2;Temp;Humidity;BMP_temperature;BMP_pressure;BME280_temperature;BME280_humidity;BME280_pressure;Samples;Min_cycle;Max_cycle;Signal;HPM_P1;HPM_P2
2022/10/18 00:01:33;;;;;;;;;18.00;18.00;;;;;;;;4987783;28;14436;-82
2022/10/18 00:03:58;;;;;;;;;18.25;17.25;;;;;;;;5014920;28;13634;-81
2022/10/18 00:06:23;;;;;;;;;20.25;17.25;;;;;;;;4995756;28;13562;-80
2022/10/18 00:08:48;;;;;;;;;20.25;17.75;;;;;;;;4989193;28;13609;-79
2022/10/18 00:11:14;;;;;;;;;18.25;16.75;;;;;;;;4988385;28;13604;-81
2022/10/18 00:13:39;;;;;;;;;19.00;17.75;;;;;;;;4988551;28;13634;-81
2022/10/18 00:16:08;;;;;;;;;20.33;17.67;;;;;;;;4988336;28;13599;-81
2022/10/18 00:18:34;;;;;;;;;16.80;15.80;;;;;;;;4987232;28;13579;-83
2022/10/18 00:21:04;;;;;;;;;18.50;18.50;;;;;;;;4988455;28;13597;-81
2022/10/18 00:23:30;;;;;;;;;16.75;16.75;;;;;;;;4986378;28;14842;-82
2022/10/18 00:26:03;;;;;;;;;19.60;18.20;;;;;;;;4987736;28;13663;-81
2022/10/18 00:28:28;;;;;;;;;18.80;18.80;;;;;;;;4981383;28;13714;-81
2022/10/18 00:30:54;;;;;;;;;18.00;17.00;;;;;;;;4987187;28;13573;-81
2022/10/18 00:33:19;;;;;;;;;17.25;17.25;;;;;;;;4987024;28;13704;-80
2022/10/18 00:35:44;;;;;;;;;22.75;20.50;;;;;;;;4987266;28;13639;-80
2022/10/18 00:38:09;;;;;;;;;16.00;16.00;;;;;;;;4987573;28;13592;-82
2022/10/18 00:40:35;;;;;;;;;20.67;19.33;;;;;;;;4987272;28;13686;-82
2022/10/18 00:43:00;;;;;;;;;16.00;16.00;;;;;;;;4986946;28;13424;-82
2022/10/18 00:45:25;;;;;;;;;17.50;15.75;;;;;;;;4987279;28;13588;-82
2022/10/18 00:47:57;;;;;;;;;18.25;18.25;;;;;;;;4987197;28;13577;-82
2022/10/18 00:50:23;;;;;;;;;22.40;21.20;;;;;;;;4987224;28;13599;-81
2022/10/18 00:52:52;;;;;;;;;20.25;20.00;;;;;;;;4987168;28;14351;-81
2022/10/18 00:55:17;;;;;;;;;18.00;17.00;;;;;;;;4985924;28;14353;-82
2022/10/18 00:57:43;;;;;;;;;16.75;15.00;;;;;;;;4987226;28;13534;-83
2022/10/18 01:00:09;;;;;;;;;20.75;19.75;;;;;;;;4986377;28;13595;-82
2022/10/18 01:02:36;;;;;;;;;16.67;16.33;;;;;;;;4985692;28;13585;-81
2022/10/18 01:05:02;;;;;;;;;17.20;17.00;;;;;;;;4987174;28;14725;-82
2022/10/18 01:07:56;;;;;;;;;16.00;16.00;;;;;;;;4986642;28;13545;-81
2022/10/18 01:10:24;;;;;;;;;16.40;16.00;;;;;;;;4968726;28;13614;-81
2022/10/18 01:13:20;;;;;;;;;16.60;16.60;;;;;;;;4986670;28;13705;-81
2022/10/18 01:15:48;;;;;;;;;17.00;16.00;;;;;;;;4917747;28;13519;-82
2022/10/18 01:18:24;;;;;;;;;17.00;17.00;;;;;;;;4986467;28;13563;-81
2022/10/18 01:21:18;;;;;;;;;17.00;17.00;;;;;;;;4986959;28;13580;-81
2022/10/18 01:23:56;;;;;;;;;18.20;16.80;;;;;;;;4973768;28;13837;-81
2022/10/18 01:26:24;;;;;;;;;16.00;16.00;;;;;;;;4987472;28;13702;-83
2022/10/18 01:29:00;;;;;;;;;16.50;16.50;;;;;;;;4988283;28;13631;-82
2022/10/18 01:31:31;;;;;;;;;14.20;13.80;;;;;;;;4994826;28;13592;-81
2022/10/18 01:33:58;;;;;;;;;21.60;21.00;;;;;;;;5003105;28;13536;-80
2022/10/18 01:36:35;;;;;;;;;18.75;18.00;;;;;;;;4993683;28;13636;-80
2022/10/18 01:39:04;;;;;;;;;16.20;14.20;;;;;;;;4985692;28;14391;-83
2022/10/18 01:41:32;;;;;;;;;18.20;18.00;;;;;;;;4986395;28;13660;-82
2022/10/18 07:38:52;;;;;;;;;23.50;23.00;;;;;;;;5125788;27;13519;-73
2022/10/18 07:41:17;;;;;;;;;22.20;20.00;;;;;;;;5088683;28;13584;-74
2022/10/18 07:43:44;;;;;;;;;19.00;19.00;;;;;;;;5091652;28;13567;-72
2022/10/18 07:46:09;;;;;;;;;22.00;19.20;;;;;;;;5092691;28;13551;-74
2022/10/18 07:48:35;;;;;;;;;20.50;20.25;;;;;;;;5089739;28;13552;-74
2022/10/18 07:51:00;;;;;;;;;15.75;15.25;;;;;;;;5093911;28;13539;-74
2022/10/18 07:53:26;;;;;;;;;21.00;19.25;;;;;;;;5091467;28;13541;-75
2022/10/18 07:55:55;;;;;;;;;18.40;18.40;;;;;;;;5085331;28;13555;-73
2022/10/18 07:58:20;;;;;;;;;19.25;18.25;;;;;;;;5080944;28;13569;-75
2022/10/18 08:00:45;;;;;;;;;18.75;18.75;;;;;;;;5083406;28;13513;-77
2022/10/18 08:03:11;;;;;;;;;18.67;17.00;;;;;;;;5087830;28;13520;-76
2022/10/18 08:05:36;;;;;;;;;19.00;18.25;;;;;;;;5103749;28;13521;-73
2022/10/18 08:08:02;;;;;;;;;22.75;20.75;;;;;;;;5101019;28;13564;-73
2022/10/18 08:53:11;;;;;;;;;31.00;28.80;;;;;;;;5136431;27;13614;-73
2022/10/18 08:55:36;;;;;;;;;27.80;25.80;;;;;;;;5103628;28;14310;-73
2022/10/18 08:58:02;;;;;;;;;23.67;23.67;;;;;;;;5103426;28;13531;-73
2022/10/18 09:00:29;;;;;;;;;27.25;25.25;;;;;;;;5103316;28;14212;-74
2022/10/18 09:03:06;;;;;;;;;23.00;22.00;;;;;;;;5103634;28;13521;-73
2022/10/18 09:05:40;;;;;;;;;22.25;22.00;;;;;;;;5103386;28;14315;-73
2022/10/18 09:08:32;;;;;;;;;24.50;22.75;;;;;;;;5103365;28;13538;-73
2022/10/18 09:11:09;;;;;;;;;23.20;23.20;;;;;;;;5079919;28;14200;-72
2022/10/18 09:13:35;;;;;;;;;26.80;25.80;;;;;;;;5087938;22;14456;-77
2022/10/18 09:16:01;;;;;;;;;28.25;27.25;;;;;;;;5062940;28;13635;-79
2022/10/18 09:18:27;;;;;;;;;32.50;29.25;;;;;;;;5063974;28;13661;-87
2022/10/18 09:20:56;;;;;;;;;24.00;23.67;;;;;;;;5063674;28;13710;-87
2022/10/18 09:23:24;;;;;;;;;21.25;21.25;;;;;;;;5064383;28;13708;-87
2022/10/18 09:25:56;;;;;;;;;33.00;29.50;;;;;;;;5063382;28;13639;-84
2022/10/18 09:28:40;;;;;;;;;24.50;24.50;;;;;;;;5063581;28;13577;-86
2022/10/18 09:31:20;;;;;;;;;27.00;24.40;;;;;;;;5062133;28;13625;-90
2022/10/18 09:33:46;;;;;;;;;24.25;23.00;;;;;;;;5063856;28;14567;-88
2022/10/18 09:36:19;;;;;;;;;21.75;21.00;;;;;;;;5062191;28;13759;-88
2022/10/18 09:38:54;;;;;;;;;28.20;26.00;;;;;;;;5065514;28;13542;-88
2022/10/18 09:41:24;;;;;;;;;25.25;24.50;;;;;;;;5066347;28;14367;-91
2022/10/18 09:44:05;;;;;;;;;21.00;20.00;;;;;;;;5063578;28;14293;-84
2022/10/18 09:46:32;;;;;;;;;22.60;20.00;;;;;;;;5063269;28;14372;-84
2022/10/18 09:49:03;;;;;;;;;23.00;21.50;;;;;;;;5061992;28;13532;-78
2022/10/18 09:51:36;;;;;;;;;23.75;23.75;;;;;;;;5063058;28;13447;-85
2022/10/18 09:54:04;;;;;;;;;20.75;19.75;;;;;;;;5063094;28;13547;-83
2022/10/18 09:57:02;;;;;;;;;26.00;23.60;;;;;;;;5062645;28;14276;-81
2022/10/18 09:59:27;;;;;;;;;25.75;21.50;;;;;;;;5064600;28;13684;-80
2022/10/18 10:01:53;;;;;;;;;23.00;23.00;;;;;;;;5049787;28;13839;-79
2022/10/18 10:04:18;;;;;;;;;27.00;25.50;;;;;;;;5034988;28;13518;-80
2022/10/18 10:06:50;;;;;;;;;28.25;25.25;;;;;;;;5020740;28;13475;-79
2022/10/18 10:09:16;;;;;;;;;29.00;29.00;;;;;;;;5035582;28;13562;-81
2022/10/18 10:11:44;;;;;;;;;24.75;23.75;;;;;;;;5036440;28;13514;-86
2022/10/18 10:14:18;;;;;;;;;26.50;25.75;;;;;;;;5019384;28;13611;-88
2022/10/18 10:16:43;;;;;;;;;23.00;22.50;;;;;;;;5020344;28;13568;-78
2022/10/18 10:19:15;;;;;;;;;21.00;21.00;;;;;;;;5035036;28;13478;-78
2022/10/18 10:21:41;;;;;;;;;27.00;22.00;;;;;;;;5034120;28;13518;-82
2022/10/18 10:24:14;;;;;;;;;24.25;24.25;;;;;;;;5018861;28;13508;-80
2022/10/18 10:26:39;;;;;;;;;21.80;21.20;;;;;;;;5039166;28;13473;-81
2022/10/18 10:29:25;;;;;;;;;19.75;19.75;;;;;;;;5036391;28;13485;-79
2022/10/18 10:32:03;;;;;;;;;20.60;19.60;;;;;;;;5036698;28;14265;-83
2022/10/18 10:34:28;;;;;;;;;17.00;17.00;;;;;;;;5022692;28;13567;-82
2022/10/18 10:36:54;;;;;;;;;23.00;21.00;;;;;;;;5036755;28;13467;-82
2022/10/18 10:39:20;;;;;;;;;18.75;18.75;;;;;;;;5034844;28;13797;-81
2022/10/18 10:41:50;;;;;;;;;20.20;20.20;;;;;;;;5037422;28;13674;-79
2022/10/18 10:44:17;;;;;;;;;21.40;20.60;;;;;;;;5036809;28;14445;-83
2022/10/18 10:46:42;;;;;;;;;26.25;23.75;;;;;;;;5037979;28;13541;-82
2022/10/18 10:49:14;;;;;;;;;20.25;18.00;;;;;;;;5036566;28;13598;-83
2022/10/18 10:51:40;;;;;;;;;22.60;21.00;;;;;;;;5036224;28;14322;-79
2022/10/18 10:54:12;;;;;;;;;20.25;18.25;;;;;;;;5035299;28;13633;-79
2022/10/18 10:56:56;;;;;;;;;21.00;18.40;;;;;;;;5037778;28;13550;-79
2022/10/18 10:59:22;;;;;;;;;23.00;21.50;;;;;;;;5037269;28;13656;-79
2022/10/18 11:01:51;;;;;;;;;25.00;24.00;;;;;;;;5030755;28;13589;-82
2022/10/18 11:04:24;;;;;;;;;24.25;22.25;;;;;;;;5028310;28;13717;-82
2022/10/18 11:06:56;;;;;;;;;28.20;25.80;;;;;;;;5027349;28;13682;-79
2022/10/18 11:09:35;;;;;;;;;22.00;21.00;;;;;;;;5044118;28;14388;-79
2022/10/18 11:12:02;;;;;;;;;25.75;25.00;;;;;;;;5036700;28;13690;-79
2022/10/18 11:14:35;;;;;;;;;27.00;25.60;;;;;;;;5036951;28;13536;-80
2022/10/18 11:17:13;;;;;;;;;20.20;19.40;;;;;;;;5036280;28;13573;-80
2022/10/18 11:19:54;;;;;;;;;21.50;19.00;;;;;;;;5036282;28;13549;-79
2022/10/18 11:22:22;;;;;;;;;18.75;17.75;;;;;;;;5034886;28;14488;-79
2022/10/18 11:24:47;;;;;;;;;20.00;19.80;;;;;;;;5068962;28;13641;-79
2022/10/18 11:27:21;;;;;;;;;22.33;20.67;;;;;;;;5037678;28;14126;-79
2022/10/18 11:29:47;;;;;;;;;24.20;22.80;;;;;;;;5036945;28;13604;-79
2022/10/18 11:32:12;;;;;;;;;20.50;19.50;;;;;;;;5034903;28;13585;-79
2022/10/18 11:35:00;;;;;;;;;19.25;19.25;;;;;;;;5037972;28;13537;-79
2022/10/18 11:37:25;;;;;;;;;24.80;23.60;;;;;;;;5031121;28;13625;-79
2022/10/18 11:40:20;;;;;;;;;20.50;19.25;;;;;;;;5037921;28;13536;-79
2022/10/18 11:43:07;;;;;;;;;20.00;19.50;;;;;;;;5032162;28;13594;-79
2022/10/18 11:45:51;;;;;;;;;22.00;21.00;;;;;;;;5027982;28;13589;-78
2022/10/18 11:48:42;;;;;;;;;22.00;21.40;;;;;;;;5028350;28;14335;-78
2022/10/18 11:51:07;;;;;;;;;18.25;17.25;;;;;;;;5045277;28;13573;-79
2022/10/18 11:53:42;;;;;;;;;19.00;17.50;;;;;;;;5037081;28;13390;-78
2022/10/18 11:56:08;;;;;;;;;19.40;18.00;;;;;;;;5035679;28;14380;-78
2022/10/18 11:58:54;;;;;;;;;17.50;17.50;;;;;;;;5036610;28;14267;-78
2022/10/18 12:01:19;;;;;;;;;20.20;19.40;;;;;;;;5035562;28;13644;-79
2022/10/18 12:03:59;;;;;;;;;19.00;19.00;;;;;;;;5035394;28;13562;-79
2022/10/18 12:06:27;;;;;;;;;15.20;14.40;;;;;;;;5035480;28;13579;-81
2022/10/18 12:08:58;;;;;;;;;15.00;15.00;;;;;;;;5035292;28;13649;-80
2022/10/18 12:11:27;;;;;;;;;21.00;20.50;;;;;;;;5037476;28;14287;-79
2022/10/18 12:13:56;;;;;;;;;22.25;19.50;;;;;;;;5038644;28;13591;-81
2022/10/18 12:16:23;;;;;;;;;21.75;20.00;;;;;;;;5029703;28;13582;-79
2022/10/18 12:18:59;;;;;;;;;19.75;17.50;;;;;;;;5026879;28;13550;-80
2022/10/18 12:21:26;;;;;;;;;20.20;18.00;;;;;;;;5037448;28;13668;-75
2022/10/18 12:24:02;;;;;;;;;17.67;17.00;;;;;;;;5046521;28;13524;-77
2022/10/18 12:26:28;;;;;;;;;19.25;19.25;;;;;;;;5046363;28;13578;-78
2022/10/18 12:28:59;;;;;;;;;20.20;18.20;;;;;;;;5046755;28;13633;-76
2022/10/18 12:31:38;;;;;;;;;20.25;18.00;;;;;;;;5046376;28;13669;-77
2022/10/18 12:34:24;;;;;;;;;18.20;16.00;;;;;;;;5046638;28;13592;-80
2022/10/18 12:37:13;;;;;;;;;22.40;20.80;;;;;;;;5046562;28;13518;-80
2022/10/18 12:39:38;;;;;;;;;16.00;14.40;;;;;;;;5043310;28;13537;-76
2022/10/18 12:42:03;;;;;;;;;19.50;17.75;;;;;;;;5046466;28;13525;-77
2022/10/18 12:44:35;;;;;;;;;19.00;17.00;;;;;;;;5046602;28;14268;-80
2022/10/18 12:47:01;;;;;;;;;16.25;16.25;;;;;;;;5043758;28;13545;-77
2022/10/18 12:49:31;;;;;;;;;18.50;17.50;;;;;;;;5035383;28;13586;-77
2022/10/18 12:52:02;;;;;;;;;21.75;19.00;;;;;;;;5035097;28;13590;-77
2022/10/18 12:54:30;;;;;;;;;20.50;19.50;;;;;;;;5035344;28;13551;-78
2022/10/18 12:56:55;;;;;;;;;18.40;17.00;;;;;;;;5041145;28;13622;-77
2022/10/18 12:59:25;;;;;;;;;18.00;17.00;;;;;;;;5041274;28;13630;-77
2022/10/18 13:01:50;;;;;;;;;14.40;14.40;;;;;;;;5036484;28;13514;-78
2022/10/18 13:04:28;;;;;;;;;21.25;20.00;;;;;;;;5034096;28;13728;-78
2022/10/18 13:06:56;;;;;;;;;27.00;23.00;;;;;;;;5033614;28;13591;-77
2022/10/18 13:09:23;;;;;;;;;21.00;21.00;;;;;;;;5035380;28;14310;-78
2022/10/18 13:11:50;;;;;;;;;18.00;17.00;;;;;;;;5037507;28;13599;-78
2022/10/18 13:14:34;;;;;;;;;21.75;19.25;;;;;;;;5034990;28;13671;-77
2022/10/18 13:17:05;;;;;;;;;21.50;19.00;;;;;;;;5035166;28;13571;-78
2022/10/18 13:19:49;;;;;;;;;21.60;19.20;;;;;;;;5034650;28;13577;-78
2022/10/18 13:22:20;;;;;;;;;22.00;20.80;;;;;;;;5034542;28;13667;-77
2022/10/18 13:25:00;;;;;;;;;19.75;18.75;;;;;;;;5034819;28;13554;-78
2022/10/18 13:27:46;;;;;;;;;20.50;19.50;;;;;;;;5035130;28;14241;-78
2022/10/18 13:30:11;;;;;;;;;21.00;18.75;;;;;;;;5035082;28;13642;-80
2022/10/18 13:32:54;;;;;;;;;18.25;18.25;;;;;;;;5026915;28;13577;-75
2022/10/18 13:35:38;;;;;;;;;20.00;20.00;;;;;;;;5026120;28;13640;-78
2022/10/18 13:38:15;;;;;;;;;21.50;18.75;;;;;;;;5046544;28;13537;-77
2022/10/18 13:40:41;;;;;;;;;21.20;18.80;;;;;;;;5047789;28;13719;-77
2022/10/18 17:33:07;;;;;;;;;14.75;14.75;;;;;;;;5133074;27;13413;-72
2022/10/18 17:35:33;;;;;;;;;15.67;14.00;;;;;;;;5118241;27;13474;-71
2022/10/18 17:37:58;;;;;;;;;26.67;25.67;;;;;;;;5094809;27;13516;-71
2022/10/18 17:40:24;;;;;;;;;18.00;18.00;;;;;;;;5102319;27;14571;-73
2022/10/18 17:42:52;;;;;;;;;18.75;18.75;;;;;;;;5098898;28;13541;-73
2022/10/18 17:45:20;;;;;;;;;16.40;16.40;;;;;;;;5100581;28;13557;-71
2022/10/18 17:47:45;;;;;;;;;19.75;19.75;;;;;;;;5100867;28;14297;-73
2022/10/18 17:50:11;;;;;;;;;25.75;22.00;;;;;;;;5100234;28;13555;-72
2022/10/18 17:52:39;;;;;;;;;22.25;21.25;;;;;;;;5101134;28;14257;-71
2022/10/18 17:55:05;;;;;;;;;18.00;17.00;;;;;;;;5102248;28;13502;-73
2022/10/18 17:57:30;;;;;;;;;20.00;17.67;;;;;;;;5101935;28;14311;-74
2022/10/18 17:59:57;;;;;;;;;23.00;21.25;;;;;;;;5116027;27;13488;-72
2022/10/18 18:02:22;;;;;;;;;19.75;19.75;;;;;;;;5119355;27;13625;-73
2022/10/18 18:04:48;;;;;;;;;18.67;16.00;;;;;;;;5102655;28;13682;-72
2022/10/18 18:07:13;;;;;;;;;19.33;19.33;;;;;;;;5101465;28;13529;-74
2022/10/18 18:09:38;;;;;;;;;18.50;18.25;;;;;;;;5099739;28;13601;-72
2022/10/18 18:12:04;;;;;;;;;18.00;18.00;;;;;;;;5100340;27;14361;-72
2022/10/18 18:14:29;;;;;;;;;18.00;16.00;;;;;;;;5100610;28;14606;-71
2022/10/18 18:16:55;;;;;;;;;16.33;13.00;;;;;;;;5099265;28;13517;-72
2022/10/18 18:19:22;;;;;;;;;57.50;45.50;;;;;;;;5100262;28;13707;-73
2022/10/18 18:21:52;;;;;;;;;25.40;23.00;;;;;;;;5100760;27;14384;-73
2022/10/18 18:24:23;;;;;;;;;17.00;16.50;;;;;;;;5097586;28;13541;-78
2022/10/18 18:26:48;;;;;;;;;20.00;18.20;;;;;;;;5099715;28;13479;-72
2022/10/18 18:29:13;;;;;;;;;37.00;33.00;;;;;;;;5101308;27;14174;-72
2022/10/18 18:31:39;;;;;;;;;17.00;14.50;;;;;;;;5101156;27;14298;-73
2022/10/18 18:34:04;;;;;;;;;11.00;11.00;;;;;;;;5100092;28;13483;-72
2022/10/18 18:36:31;;;;;;;;;14.50;14.50;;;;;;;;5102537;27;13610;-71
2022/10/18 18:38:57;;;;;;;;;17.25;16.00;;;;;;;;5100267;27;13587;-73
2022/10/18 18:41:23;;;;;;;;;17.00;16.60;;;;;;;;5098287;28;13680;-75
2022/10/18 18:43:50;;;;;;;;;16.00;15.00;;;;;;;;5089238;28;13522;-73
2022/10/18 18:46:15;;;;;;;;;21.25;18.75;;;;;;;;5088174;28;13470;-74
2022/10/18 18:48:40;;;;;;;;;28.50;26.50;;;;;;;;5091845;28;13526;-75
2022/10/18 18:51:07;;;;;;;;;19.00;16.00;;;;;;;;5089336;28;13534;-73
2022/10/18 18:53:33;;;;;;;;;28.67;27.00;;;;;;;;5086127;27;13518;-73
2022/10/18 18:56:06;;;;;;;;;16.00;16.00;;;;;;;;5086930;28;13681;-72
2022/10/18 18:58:33;;;;;;;;;22.25;18.50;;;;;;;;5084708;28;13615;-74
2022/10/18 19:00:58;;;;;;;;;21.20;21.20;;;;;;;;5107956;27;14410;-75
2022/10/18 19:03:23;;;;;;;;;17.00;17.00;;;;;;;;5085174;28;13594;-75
2022/10/18 19:05:49;;;;;;;;;18.33;18.00;;;;;;;;5086539;28;14375;-77
2022/10/18 19:08:14;;;;;;;;;20.33;20.33;;;;;;;;5086017;28;13620;-75
2022/10/18 19:10:39;;;;;;;;;22.00;19.75;;;;;;;;5086220;28;13514;-71
2022/10/18 19:13:04;;;;;;;;;21.00;19.75;;;;;;;;5083153;28;13516;-72
2022/10/18 19:15:30;;;;;;;;;31.00;30.67;;;;;;;;5086266;28;14225;-73
2022/10/18 19:17:55;;;;;;;;;26.33;24.67;;;;;;;;5084703;28;13375;-73
2022/10/18 19:20:20;;;;;;;;;28.75;26.00;;;;;;;;5084817;28;13641;-75
2022/10/18 19:22:46;;;;;;;;;23.67;21.67;;;;;;;;5086077;28;14394;-77
2022/10/18 19:25:11;;;;;;;;;38.25;34.25;;;;;;;;5084743;28;14340;-83
2022/10/18 19:27:36;;;;;;;;;59.00;47.67;;;;;;;;5085982;28;13599;-73
2022/10/18 19:30:03;;;;;;;;;63.00;51.00;;;;;;;;5085830;28;14377;-76
2022/10/18 19:32:28;;;;;;;;;30.00;29.40;;;;;;;;5085529;28;13588;-80
2022/10/18 19:34:53;;;;;;;;;45.25;38.00;;;;;;;;5085444;28;14313;-76
2022/10/18 19:37:19;;;;;;;;;28.33;28.00;;;;;;;;5086298;28;13756;-76
2022/10/18 19:39:44;;;;;;;;;120.00;112.50;;;;;;;;5085284;28;14274;-77
2022/10/18 19:42:13;;;;;;;;;84.67;73.67;;;;;;;;5085200;28;13763;-86
2022/10/18 19:44:39;;;;;;;;;53.00;43.75;;;;;;;;5083428;28;13719;-75
2022/10/18 19:47:04;;;;;;;;;;;;;;;;;;5092227;28;11594;-79
2022/10/18 19:49:30;;;;;;;;;;;;;;;;;;5091945;28;7528;-78
2022/10/18 19:51:55;;;;;;;;;;;;;;;;;;5088111;28;7540;-78
2022/10/18 19:54:20;;;;;;;;;;;;;;;;;;5086459;28;7536;-74
2022/10/18 19:56:45;;;;;;;;;;;;;;;;;;5090751;28;7530;-76
2022/10/18 19:59:10;;;;;;;;;;;;;;;;;;5091234;28;7528;-77
2022/10/18 20:01:35;;;;;;;;;;;;;;;;;;5090899;28;7532;-74
2022/10/18 20:04:03;;;;;;;;;;;;;;;;;;5089938;28;7551;-75
2022/10/18 20:06:28;;;;;;;;;;;;;;;;;;5089724;28;7530;-74
2022/10/18 20:08:53;;;;;;;;;;;;;;;;;;5090970;28;7528;-79
2022/10/18 20:11:18;;;;;;;;;;;;;;;;;;5091577;28;7540;-80
2022/10/18 20:13:43;;;;;;;;;;;;;;;;;;5091406;28;7982;-76
2022/10/18 20:16:09;;;;;;;;;;;;;;;;;;5090973;28;7580;-79
2022/10/18 20:18:37;;;;;;;;;;;;;;;;;;5088704;28;7520;-76
2022/10/18 20:21:02;;;;;;;;;;;;;;;;;;5090668;28;7540;-74
2022/10/18 20:23:28;;;;;;;;;;;;;;;;;;5089710;28;7520;-73
2022/10/18 20:25:53;;;;;;;;;;;;;;;;;;5091899;28;7556;-75
2022/10/18 20:28:18;;;;;;;;;;;;;;;;;;5099660;28;7528;-75
2022/10/18 20:30:43;;;;;;;;;;;;;;;;;;5095387;28;7535;-77
2022/10/18 20:33:08;;;;;;;;;;;;;;;;;;5090094;28;7544;-78
2022/10/18 20:35:34;;;;;;;;;;;;;;;;;;5090142;28;7528;-78
2022/10/18 20:37:59;;;;;;;;;;;;;;;;;;5092643;28;7538;-76
2022/10/18 20:40:24;;;;;;;;;;;;;;;;;;5090522;28;7566;-79
2022/10/18 20:42:49;;;;;;;;;;;;;;;;;;5092161;28;7540;-85
2022/10/18 20:45:14;;;;;;;;;;;;;;;;;;5099558;28;7524;-80
2022/10/18 20:47:39;;;;;;;;;;;;;;;;;;5099117;28;7540;-82
2022/10/18 20:50:04;;;;;;;;;;;;;;;;;;5094983;28;7532;-82
2022/10/18 20:52:30;;;;;;;;;;;;;;;;;;5096771;28;7543;-77
2022/10/18 20:54:55;;;;;;;;;;;;;;;;;;5090942;28;7544;-79
2022/10/18 20:57:20;;;;;;;;;;;;;;;;;;5092951;28;7944;-79
2022/10/18 20:59:48;;;;;;;;;;;;;;;;;;5091256;28;7528;-77
2022/10/18 21:02:13;;;;;;;;;;;;;;;;;;5091341;28;7548;-78
2022/10/18 21:04:38;;;;;;;;;;;;;;;;;;5092927;28;7540;-78
2022/10/18 21:07:04;;;;;;;;;;;;;;;;;;5089533;28;7528;-77
2022/10/18 21:09:29;;;;;;;;;;;;;;;;;;5091385;28;7635;-74
2022/10/18 21:11:55;;;;;;;;;;;;;;;;;;5089007;28;7972;-75
2022/10/18 21:14:20;;;;;;;;;;;;;;;;;;5090715;28;7535;-79
2022/10/18 21:16:45;;;;;;;;;;;;;;;;;;5091712;28;7538;-80
2022/10/18 21:19:10;;;;;;;;;;;;;;;;;;5091658;28;7532;-80
2022/10/18 21:21:35;;;;;;;;;;;;;;;;;;5091565;28;7544;-87
2022/10/18 21:24:00;;;;;;;;;;;;;;;;;;5090116;28;7520;-81
2022/10/18 21:26:25;;;;;;;;;;;;;;;;;;5084865;28;7524;-82
2022/10/18 21:28:50;;;;;;;;;;;;;;;;;;5078602;28;7533;-82
2022/10/18 21:31:16;;;;;;;;;;;;;;;;;;5071310;28;7532;-83
2022/10/18 21:33:41;;;;;;;;;;;;;;;;;;5075660;28;7532;-83
2022/10/18 21:36:06;;;;;;;;;;;;;;;;;;5075292;28;7509;-83
2022/10/18 21:38:31;;;;;;;;;;;;;;;;;;5070134;28;7555;-84
2022/10/18 21:40:56;;;;;;;;;;;;;;;;;;5080560;28;7532;-85
2022/10/18 21:43:21;;;;;;;;;;;;;;;;;;5091731;28;7532;-85
2022/10/18 21:45:47;;;;;;;;;;;;;;;;;;5091793;28;7619;-85
2022/10/18 21:48:12;;;;;;;;;;;;;;;;;;5091272;28;7524;-84
2022/10/18 21:50:37;;;;;;;;;;;;;;;;;;5091019;28;7521;-84
2022/10/18 21:53:02;;;;;;;;;;;;;;;;;;5082520;28;7535;-83
2022/10/18 21:55:27;;;;;;;;;;;;;;;;;;5085664;28;7559;-79
2022/10/18 21:57:52;;;;;;;;;;;;;;;;;;5089152;28;7635;-79
2022/10/18 22:00:17;;;;;;;;;;;;;;;;;;5089775;28;7528;-81
2022/10/18 22:02:42;;;;;;;;;;;;;;;;;;5091248;28;7524;-80
2022/10/18 22:05:08;;;;;;;;;;;;;;;;;;5091640;28;7597;-80
2022/10/18 22:07:33;;;;;;;;;;;;;;;;;;5091823;28;7604;-80
2022/10/18 22:09:58;;;;;;;;;;;;;;;;;;5091514;28;7562;-81
2022/10/18 22:12:23;;;;;;;;;;;;;;;;;;5090190;28;7524;-81
2022/10/18 22:14:48;;;;;;;;;;;;;;;;;;5092241;28;8042;-81
2022/10/18 22:17:13;;;;;;;;;;;;;;;;;;5092425;28;7520;-81
2022/10/18 22:19:38;;;;;;;;;;;;;;;;;;5095345;28;7540;-81
2022/10/18 22:22:04;;;;;;;;;;;;;;;;;;5095690;28;7532;-81
2022/10/18 22:24:29;;;;;;;;;;;;;;;;;;5095533;28;7952;-81
2022/10/18 22:26:54;;;;;;;;;;;;;;;;;;5095992;28;7524;-81
2022/10/18 22:29:19;;;;;;;;;;;;;;;;;;5094504;28;7987;-83
2022/10/18 22:31:44;;;;;;;;;;;;;;;;;;5097859;28;7595;-83
2022/10/18 22:34:09;;;;;;;;;;;;;;;;;;5095751;28;7524;-82
2022/10/18 22:36:34;;;;;;;;;;;;;;;;;;5095652;28;7607;-81
2022/10/18 22:38:59;;;;;;;;;;;;;;;;;;5096074;28;8171;-82
2022/10/18 22:41:25;;;;;;;;;;;;;;;;;;5095576;28;7532;-82
2022/10/18 22:43:50;;;;;;;;;;;;;;;;;;5095597;28;7593;-82
2022/10/18 22:46:15;;;;;;;;;;;;;;;;;;5096152;28;7524;-82
2022/10/18 22:48:40;;;;;;;;;;;;;;;;;;5099488;28;7527;-79
2022/10/18 22:51:05;;;;;;;;;;;;;;;;;;5109670;28;7634;-80
2022/10/18 22:53:30;;;;;;;;;;;;;;;;;;5096254;28;7512;-78
2022/10/18 22:55:55;;;;;;;;;;;;;;;;;;5095719;28;7638;-80
2022/10/18 22:58:20;;;;;;;;;;;;;;;;;;5095449;28;7924;-80
2022/10/18 23:00:46;;;;;;;;;;;;;;;;;;5093588;28;7513;-81
2022/10/18 23:03:11;;;;;;;;;;;;;;;;;;5094893;28;7932;-79
2022/10/18 23:05:36;;;;;;;;;;;;;;;;;;5094672;28;7536;-79
2022/10/18 23:08:01;;;;;;;;;;;;;;;;;;5094977;28;7532;-78
2022/10/18 23:10:26;;;;;;;;;;;;;;;;;;5095302;28;7532;-78
2022/10/18 23:12:51;;;;;;;;;;;;;;;;;;5095147;28;7577;-82
2022/10/18 23:15:16;;;;;;;;;;;;;;;;;;5093973;28;7520;-81
2022/10/18 23:17:42;;;;;;;;;;;;;;;;;;5094666;28;7536;-81
2022/10/18 23:20:07;;;;;;;;;;;;;;;;;;5094486;28;7528;-80
2022/10/18 23:22:32;;;;;;;;;;;;;;;;;;5094488;28;7547;-79
2022/10/18 23:24:57;;;;;;;;;;;;;;;;;;5094475;28;7519;-79
2022/10/18 23:27:22;;;;;;;;;;;;;;;;;;5094281;28;7528;-81
2022/10/18 23:29:47;;;;;;;;;;;;;;;;;;5094516;28;7527;-79
2022/10/18 23:32:12;;;;;;;;;;;;;;;;;;5095757;28;7529;-83
2022/10/18 23:34:38;;;;;;;;;;;;;;;;;;5094563;28;7524;-81
2022/10/18 23:37:03;;;;;;;;;;;;;;;;;;5094761;28;7619;-83
2022/10/18 23:39:28;;;;;;;;;;;;;;;;;;5093984;28;7548;-81
2022/10/18 23:41:53;;;;;;;;;;;;;;;;;;5092488;28;7573;-82
2022/10/18 23:44:18;;;;;;;;;;;;;;;;;;5093202;28;7565;-81
2022/10/18 23:46:43;;;;;;;;;;;;;;;;;;5093883;28;7516;-80
2022/10/18 23:49:08;;;;;;;;;;;;;;;;;;5094023;28;7520;-81
2022/10/18 23:51:33;;;;;;;;;;;;;;;;;;5094263;28;7528;-79
2022/10/18 23:53:59;;;;;;;;;;;;;;;;;;5093337;28;7516;-79
2022/10/18 23:56:24;;;;;;;;;;;;;;;;;;5093749;28;7516;-78
2022/10/18 23:58:49;;;;;;;;;;;;;;;;;;5093501;28;7584;-75
